Time;durP1;ratioP1;P1;durP2;ratioP2;P2;SDS_P1;SDS_P2;PMS_P1;PMS_P2;Temp;Humidity;BMP_temperature;BMP_pressure;BME280_temperature;BME280_humidity;BME280_pressure;Samples;Min_cycle;Max_cycle;Signal;HPM_P1;HPM_P2
2021/12/28 00:01:05;;;;;;;;;;;6.80;99.90;;;;;;5111951;27;20374;-76
2021/12/28 00:03:34;;;;;;;;;;;6.70;99.90;;;;;;5112747;27;19932;-76
2021/12/28 00:06:01;;;;;;;;;;;6.60;99.90;;;;;;5103239;27;19925;-76
2021/12/28 00:08:32;;;;;;;;;;;6.70;99.90;;;;;;5104031;28;20002;-75
2021/12/28 00:10:59;;;;;;;;;;;6.70;99.90;;;;;;5102432;28;19978;-76
2021/12/28 00:13:26;;;;;;;;;;;6.70;99.90;;;;;;5098786;28;20374;-76
2021/12/28 00:18:23;;;;;;;;;;;6.70;99.90;;;;;;5115412;27;20289;-77
2021/12/28 00:20:52;;;;;;;;;;;6.70;99.90;;;;;;5104908;27;20421;-76
2021/12/28 00:23:20;;;;;;;;;;;6.70;99.90;;;;;;5109187;28;19924;-77
2021/12/28 00:25:51;;;;;;;;;;;6.80;99.90;;;;;;5106755;28;19924;-76
2021/12/28 00:28:18;;;;;;;;;;;6.80;99.90;;;;;;5111283;28;20018;-77
2021/12/28 00:30:45;;;;;;;;;;;6.80;99.90;;;;;;5111617;28;19994;-78
2021/12/28 00:33:12;;;;;;;;;;;6.80;99.90;;;;;;5101116;28;19974;-78
2021/12/28 00:35:40;;;;;;;;;;;6.80;99.90;;;;;;5110222;28;21853;-77
2021/12/28 00:38:14;;;;;;;;;;;6.80;99.90;;;;;;5095240;28;20338;-77
2021/12/28 00:40:41;;;;;;;;;;;6.80;99.90;;;;;;5108988;28;19980;-75
2021/12/28 00:43:07;;;;;;;;;;;6.80;99.90;;;;;;5108850;28;19963;-76
2021/12/28 00:45:34;;;;;;;;;;;6.80;99.90;;;;;;5093226;27;20027;-76
2021/12/28 00:48:01;;;;;;;;;;;6.80;99.90;;;;;;5105688;28;19926;-77
2021/12/28 00:50:28;;;;;;;;;;;6.80;99.90;;;;;;5106442;28;19923;-76
2021/12/28 00:52:56;;;;;;;;;;;6.80;99.90;;;;;;5096585;28;19953;-77
2021/12/28 00:55:24;;;;;;;;;;;6.80;99.90;;;;;;5108171;28;19924;-77
2021/12/28 00:57:54;;;;;;;;;;;6.80;99.90;;;;;;5092877;28;19927;-77
2021/12/28 01:00:22;;;;;;;;;;;6.90;99.90;;;;;;5113091;27;19928;-77
2021/12/28 01:02:49;;;;;;;;;;;6.90;99.90;;;;;;5094389;28;20015;-76
2021/12/28 01:05:16;;;;;;;;;;;6.80;99.90;;;;;;5094243;28;19977;-77
2021/12/28 01:07:43;;;;;;;;;;;6.80;99.90;;;;;;5095313;28;19935;-77
2021/12/28 01:10:12;;;;;;;;;;;6.80;99.90;;;;;;5096883;28;20015;-76
2021/12/28 01:12:39;;;;;;;;;;;6.80;99.90;;;;;;5097361;28;19924;-76
2021/12/28 01:15:08;;;;;;;;;;;6.80;99.90;;;;;;5105505;28;19932;-77
2021/12/28 01:17:35;;;;;;;;;;;6.90;99.90;;;;;;5106341;28;19959;-76
2021/12/28 01:20:03;;;;;;;;;;;6.80;99.90;;;;;;5106085;28;20023;-76
2021/12/28 01:22:30;;;;;;;;;;;6.90;99.90;;;;;;5094851;28;19928;-76
2021/12/28 01:24:56;;;;;;;;;;;6.90;99.90;;;;;;5105361;28;20015;-76
2021/12/28 01:27:30;;;;;;;;;;;6.90;99.90;;;;;;5109988;28;19927;-77
2021/12/28 01:29:57;;;;;;;;;;;6.90;99.90;;;;;;5104931;28;20014;-77
2021/12/28 01:32:24;;;;;;;;;;;6.90;99.90;;;;;;5099549;28;19935;-77
2021/12/28 01:34:50;;;;;;;;;;;6.90;99.90;;;;;;5101196;28;19928;-77
2021/12/28 01:37:17;;;;;;;;;;;6.90;99.90;;;;;;5093395;28;19923;-77
2021/12/28 01:39:44;;;;;;;;;;;6.90;99.90;;;;;;5099119;28;19924;-76
2021/12/28 01:42:10;;;;;;;;;;;6.90;99.90;;;;;;5101096;28;19928;-76
2021/12/28 01:44:37;;;;;;;;;;;6.90;99.90;;;;;;5105387;28;20823;-76
2021/12/28 01:47:06;;;;;;;;;;;7.00;99.90;;;;;;5080678;28;20007;-76
2021/12/28 01:49:32;;;;;;;;;;;7.00;99.90;;;;;;5104205;28;20386;-77
2021/12/28 01:51:59;;;;;;;;;;;7.00;99.90;;;;;;5099586;28;19967;-77
2021/12/28 01:54:26;;;;;;;;;;;6.90;99.90;;;;;;5093392;28;19967;-78
2021/12/28 01:56:53;;;;;;;;;;;6.90;99.90;;;;;;5091398;28;19976;-78
2021/12/28 01:59:21;;;;;;;;;;;6.90;99.90;;;;;;5106906;28;19997;-77
2021/12/28 02:01:48;;;;;;;;;;;7.00;99.90;;;;;;5100573;28;19966;-78
2021/12/28 02:04:16;;;;;;;;;;;7.00;99.90;;;;;;5092189;28;20441;-78
2021/12/28 02:06:43;;;;;;;;;;;7.00;99.90;;;;;;5101482;28;20011;-79
2021/12/28 02:09:10;;;;;;;;;;;7.00;99.90;;;;;;5093542;28;20019;-79
2021/12/28 02:11:37;;;;;;;;;;;7.00;99.90;;;;;;5096805;28;19924;-79
2021/12/28 02:14:06;;;;;;;;;;;6.90;99.90;;;;;;5093878;28;20552;-79
2021/12/28 02:16:33;;;;;;;;;;;6.90;99.90;;;;;;5102176;28;19924;-79
2021/12/28 02:19:02;;;;;;;;;;;7.00;99.90;;;;;;5092706;28;19932;-79
2021/12/28 02:21:31;;;;;;;;;;;7.00;99.90;;;;;;5092479;28;20057;-79
2021/12/28 02:23:58;;;;;;;;;;;7.00;99.90;;;;;;5104038;28;20341;-79
2021/12/28 02:26:25;;;;;;;;;;;7.00;99.90;;;;;;5105456;28;20034;-79
2021/12/28 02:28:52;;;;;;;;;;;7.00;99.90;;;;;;5107286;28;20381;-79
2021/12/28 02:31:19;;;;;;;;;;;7.00;99.90;;;;;;5102127;28;19924;-79
2021/12/28 02:33:48;;;;;;;;;;;7.00;99.90;;;;;;5102149;28;19924;-79
2021/12/28 02:36:18;;;;;;;;;;;7.00;99.90;;;;;;5108794;28;19924;-79
2021/12/28 02:38:45;;;;;;;;;;;7.00;99.90;;;;;;5093747;28;19931;-79
2021/12/28 02:41:12;;;;;;;;;;;7.00;99.90;;;;;;5100140;28;20032;-79
2021/12/28 02:43:45;;;;;;;;;;;7.00;99.90;;;;;;5107654;28;19950;-79
2021/12/28 02:46:12;;;;;;;;;;;7.00;99.90;;;;;;5100573;27;20007;-79
2021/12/28 02:48:41;;;;;;;;;;;7.00;99.90;;;;;;5101113;28;19980;-79
2021/12/28 02:51:09;;;;;;;;;;;7.00;99.90;;;;;;5102575;27;19924;-80
2021/12/28 02:53:36;;;;;;;;;;;7.00;99.90;;;;;;5115161;27;19930;-79
2021/12/28 02:56:04;;;;;;;;;;;7.00;99.90;;;;;;5106580;28;19924;-79
2021/12/28 02:58:42;;;;;;;;;;;7.00;99.90;;;;;;5096065;28;19934;-79
2021/12/28 03:01:14;;;;;;;;;;;7.00;99.90;;;;;;5099751;28;19951;-79
2021/12/28 03:03:42;;;;;;;;;;;7.10;99.90;;;;;;5097038;28;19932;-79
2021/12/28 03:06:11;;;;;;;;;;;7.10;99.90;;;;;;5126587;27;19930;-79
2021/12/28 03:08:39;;;;;;;;;;;7.10;99.90;;;;;;5100618;28;20382;-79
2021/12/28 03:11:06;;;;;;;;;;;7.10;99.90;;;;;;5102841;28;20440;-78
2021/12/28 03:13:37;;;;;;;;;;;7.10;99.90;;;;;;5105101;28;19923;-78
2021/12/28 03:16:04;;;;;;;;;;;7.10;99.90;;;;;;5103021;28;20034;-79
2021/12/28 03:18:31;;;;;;;;;;;7.10;99.90;;;;;;5099200;28;19935;-79
2021/12/28 03:20:58;;;;;;;;;;;7.10;99.90;;;;;;5097178;28;20443;-79
2021/12/28 03:23:26;;;;;;;;;;;7.20;99.90;;;;;;5094440;28;20371;-78
2021/12/28 03:25:53;;;;;;;;;;;7.20;99.90;;;;;;5097206;28;19928;-78
2021/12/28 03:28:22;;;;;;;;;;;7.20;99.90;;;;;;5093396;28;19924;-79
2021/12/28 03:30:49;;;;;;;;;;;7.20;99.90;;;;;;5093866;28;20023;-79
2021/12/28 03:33:19;;;;;;;;;;;7.20;99.90;;;;;;5096810;28;19924;-79
2021/12/28 03:35:46;;;;;;;;;;;7.20;99.90;;;;;;5103447;28;19967;-78
2021/12/28 03:38:13;;;;;;;;;;;7.20;99.90;;;;;;5106500;27;19934;-79
2021/12/28 03:40:39;;;;;;;;;;;7.20;99.90;;;;;;5100907;28;19931;-78
2021/12/28 03:43:06;;;;;;;;;;;7.20;99.90;;;;;;5105315;28;20421;-77
2021/12/28 03:45:33;;;;;;;;;;;7.10;99.90;;;;;;5098025;28;19931;-78
2021/12/28 03:48:05;;;;;;;;;;;7.10;99.90;;;;;;5100268;28;20015;-77
2021/12/28 03:50:33;;;;;;;;;;;7.10;99.90;;;;;;5104199;28;19935;-76
2021/12/28 03:52:59;;;;;;;;;;;7.10;99.90;;;;;;5095978;28;19924;-77
2021/12/28 03:55:26;;;;;;;;;;;7.10;99.90;;;;;;5096754;28;19939;-77
2021/12/28 03:57:55;;;;;;;;;;;7.20;99.90;;;;;;5094658;28;19924;-77
2021/12/28 04:00:22;;;;;;;;;;;7.10;99.90;;;;;;5096650;28;19974;-78
2021/12/28 04:02:49;;;;;;;;;;;7.20;99.90;;;;;;5104326;28;19946;-77
2021/12/28 04:05:16;;;;;;;;;;;7.20;99.90;;;;;;5094821;28;20409;-78
2021/12/28 04:07:44;;;;;;;;;;;7.20;99.90;;;;;;5102626;28;20018;-78
2021/12/28 04:10:11;;;;;;;;;;;7.20;99.90;;;;;;5107226;28;20011;-80
2021/12/28 04:12:39;;;;;;;;;;;7.20;99.90;;;;;;5104781;28;19928;-79
2021/12/28 04:15:07;;;;;;;;;;;7.20;99.90;;;;;;5099157;28;20351;-79
2021/12/28 04:17:37;;;;;;;;;;;7.30;99.90;;;;;;5094071;28;19924;-78
2021/12/28 04:20:10;;;;;;;;;;;7.30;99.90;;;;;;5093261;28;20374;-79
2021/12/28 04:22:37;;;;;;;;;;;7.30;99.90;;;;;;5097202;28;19968;-79
2021/12/28 04:25:05;;;;;;;;;;;7.30;99.90;;;;;;5096280;28;19924;-79
2021/12/28 04:27:35;;;;;;;;;;;7.30;99.90;;;;;;5101621;28;19928;-79
2021/12/28 04:30:03;;;;;;;;;;;7.30;99.90;;;;;;5110646;28;20018;-79
2021/12/28 04:32:30;;;;;;;;;;;7.30;99.90;;;;;;5105269;28;20011;-79
2021/12/28 04:34:56;;;;;;;;;;;7.30;99.90;;;;;;5104480;28;19924;-79
2021/12/28 04:37:30;;;;;;;;;;;7.30;99.90;;;;;;5109872;28;19924;-78
2021/12/28 04:39:57;;;;;;;;;;;7.30;99.90;;;;;;5110671;28;19930;-78
2021/12/28 04:42:26;;;;;;;;;;;7.30;99.90;;;;;;5112370;28;19924;-79
2021/12/28 04:44:56;;;;;;;;;;;7.20;99.90;;;;;;5095515;27;20613;-77
2021/12/28 04:47:22;;;;;;;;;;;7.20;99.90;;;;;;5094783;27;19928;-77
2021/12/28 04:49:49;;;;;;;;;;;7.10;99.90;;;;;;5094202;28;20285;-77
2021/12/28 04:52:16;;;;;;;;;;;7.20;99.90;;;;;;5101447;28;19946;-77
2021/12/28 04:54:43;;;;;;;;;;;7.10;99.90;;;;;;5097654;27;19971;-77
2021/12/28 04:57:10;;;;;;;;;;;7.10;99.90;;;;;;5105175;28;19971;-76
2021/12/28 04:59:36;;;;;;;;;;;7.10;99.90;;;;;;5100874;28;20347;-76
2021/12/28 05:02:03;;;;;;;;;;;7.10;99.90;;;;;;5111053;28;19930;-76
2021/12/28 05:04:30;;;;;;;;;;;7.10;99.90;;;;;;5111673;28;19927;-75
2021/12/28 05:06:56;;;;;;;;;;;7.10;99.90;;;;;;5105712;28;19928;-75
2021/12/28 05:09:25;;;;;;;;;;;7.10;99.90;;;;;;5093107;28;20275;-74
2021/12/28 05:11:55;;;;;;;;;;;7.00;99.90;;;;;;5094800;28;20007;-74
2021/12/28 05:14:22;;;;;;;;;;;7.00;99.90;;;;;;5101644;28;20113;-74
2021/12/28 05:16:57;;;;;;;;;;;7.00;99.90;;;;;;5089933;28;19931;-74
2021/12/28 05:19:24;;;;;;;;;;;7.00;99.90;;;;;;5103394;28;20751;-74
2021/12/28 05:21:51;;;;;;;;;;;7.00;99.90;;;;;;5099878;27;19924;-73
2021/12/28 05:24:18;;;;;;;;;;;7.00;99.90;;;;;;5120125;27;19924;-73
2021/12/28 05:26:52;;;;;;;;;;;7.00;99.90;;;;;;5108327;28;19934;-74
2021/12/28 05:29:19;;;;;;;;;;;7.00;99.90;;;;;;5096395;28;19928;-74
2021/12/28 05:31:46;;;;;;;;;;;7.00;99.90;;;;;;5092396;28;19924;-73
2021/12/28 05:34:13;;;;;;;;;;;7.00;99.90;;;;;;5100372;27;19924;-73
2021/12/28 05:36:40;;;;;;;;;;;6.90;99.90;;;;;;5112929;27;19923;-73
2021/12/28 05:39:10;;;;;;;;;;;6.90;99.90;;;;;;5112015;27;19946;-74
2021/12/28 05:41:36;;;;;;;;;;;6.90;99.90;;;;;;5099581;28;19931;-73
2021/12/28 05:44:03;;;;;;;;;;;6.90;99.90;;;;;;5101644;28;19924;-73
2021/12/28 05:46:30;;;;;;;;;;;6.90;99.90;;;;;;5105978;28;20393;-74
2021/12/28 05:48:57;;;;;;;;;;;6.90;99.90;;;;;;5105235;28;19953;-74
2021/12/28 05:51:24;;;;;;;;;;;6.90;99.90;;;;;;5092085;28;19924;-74
2021/12/28 05:53:52;;;;;;;;;;;6.80;99.90;;;;;;5089552;28;20062;-73
2021/12/28 05:56:18;;;;;;;;;;;6.80;99.90;;;;;;5096621;28;20015;-73
2021/12/28 05:58:48;;;;;;;;;;;6.90;99.90;;;;;;5103304;28;19923;-74
2021/12/28 06:01:15;;;;;;;;;;;6.90;99.90;;;;;;5116353;28;19930;-73
2021/12/28 06:03:42;;;;;;;;;;;6.90;99.90;;;;;;5098448;28;19939;-73
2021/12/28 06:06:09;;;;;;;;;;;6.80;99.90;;;;;;5095159;28;20027;-73
2021/12/28 06:08:36;;;;;;;;;;;6.90;99.90;;;;;;5105516;28;20484;-73
2021/12/28 06:11:05;;;;;;;;;;;6.90;99.90;;;;;;5106181;28;19928;-72
2021/12/28 06:13:32;;;;;;;;;;;6.90;99.90;;;;;;5105931;28;20053;-72
2021/12/28 06:15:59;;;;;;;;;;;6.90;99.90;;;;;;5098219;28;19950;-73
2021/12/28 06:18:25;;;;;;;;;;;6.90;99.90;;;;;;5081245;28;19928;-73
2021/12/28 06:20:52;;;;;;;;;;;6.90;99.90;;;;;;5102458;28;19928;-72
2021/12/28 06:23:19;;;;;;;;;;;6.90;99.90;;;;;;5104763;28;19924;-73
2021/12/28 06:25:45;;;;;;;;;;;6.90;99.90;;;;;;5098393;28;19924;-72
2021/12/28 06:28:12;;;;;;;;;;;6.90;99.90;;;;;;5100002;27;19938;-72
2021/12/28 06:30:42;;;;;;;;;;;6.90;99.90;;;;;;5109040;27;20006;-72
2021/12/28 06:33:09;;;;;;;;;;;6.90;99.90;;;;;;5095719;28;19974;-72
2021/12/28 06:35:35;;;;;;;;;;;6.90;99.90;;;;;;5102775;28;19931;-73
2021/12/28 06:38:02;;;;;;;;;;;6.90;99.90;;;;;;5101183;28;19927;-72
2021/12/28 06:40:32;;;;;;;;;;;7.00;99.90;;;;;;5108763;28;19928;-72
2021/12/28 06:42:58;;;;;;;;;;;7.00;99.90;;;;;;5094237;28;19924;-72
2021/12/28 06:45:26;;;;;;;;;;;6.90;99.90;;;;;;5098240;27;19924;-72
2021/12/28 06:47:53;;;;;;;;;;;6.90;99.90;;;;;;5099176;27;19924;-72
2021/12/28 06:50:19;;;;;;;;;;;6.90;99.90;;;;;;5109230;28;19932;-72
2021/12/28 06:52:46;;;;;;;;;;;6.90;99.90;;;;;;5101998;28;20018;-72
2021/12/28 06:55:16;;;;;;;;;;;6.90;99.90;;;;;;5102618;28;20019;-72
2021/12/28 06:57:43;;;;;;;;;;;6.90;99.90;;;;;;5102413;28;20017;-72
2021/12/28 07:00:11;;;;;;;;;;;6.90;99.90;;;;;;5093275;28;19931;-72
2021/12/28 07:02:38;;;;;;;;;;;6.90;99.90;;;;;;5095053;28;19932;-72
2021/12/28 07:05:05;;;;;;;;;;;6.90;99.90;;;;;;5100936;27;19977;-72
2021/12/28 07:07:32;;;;;;;;;;;6.90;99.90;;;;;;5096198;28;19954;-71
2021/12/28 07:09:58;;;;;;;;;;;7.00;99.90;;;;;;5091844;28;20302;-72
2021/12/28 07:12:25;;;;;;;;;;;7.00;99.90;;;;;;5101729;28;19924;-71
2021/12/28 07:14:53;;;;;;;;;;;7.00;99.90;;;;;;5106747;28;19927;-72
2021/12/28 07:17:19;;;;;;;;;;;7.00;99.90;;;;;;5097651;28;19946;-72
2021/12/28 07:19:46;;;;;;;;;;;7.10;99.90;;;;;;5097893;28;19924;-72
2021/12/28 07:22:13;;;;;;;;;;;7.10;99.90;;;;;;5082543;28;19931;-71
2021/12/28 07:24:39;;;;;;;;;;;7.10;99.90;;;;;;5095705;28;19924;-72
2021/12/28 07:27:09;;;;;;;;;;;7.20;99.90;;;;;;5100521;28;20285;-72
2021/12/28 07:29:36;;;;;;;;;;;7.20;99.90;;;;;;5092882;28;19924;-72
2021/12/28 07:32:04;;;;;;;;;;;7.20;99.90;;;;;;5096160;28;20019;-72
2021/12/28 07:34:31;;;;;;;;;;;7.30;99.90;;;;;;5103110;28;19924;-72
2021/12/28 07:36:58;;;;;;;;;;;7.30;99.90;;;;;;5096752;28;19924;-72
2021/12/28 07:39:25;;;;;;;;;;;7.30;99.90;;;;;;5098850;27;19975;-71
2021/12/28 07:41:52;;;;;;;;;;;7.30;99.90;;;;;;5109176;27;19934;-71
2021/12/28 07:44:22;;;;;;;;;;;7.30;99.90;;;;;;5099145;28;19924;-71
2021/12/28 07:46:49;;;;;;;;;;;7.40;99.90;;;;;;5100700;28;20019;-71
2021/12/28 07:49:16;;;;;;;;;;;7.40;99.90;;;;;;5090798;28;19967;-71
2021/12/28 07:51:46;;;;;;;;;;;7.40;99.90;;;;;;5096447;28;20382;-71
2021/12/28 07:54:13;;;;;;;;;;;7.40;99.90;;;;;;5090497;28;20022;-71
2021/12/28 07:56:39;;;;;;;;;;;7.40;99.90;;;;;;5101574;28;19932;-71
2021/12/28 07:59:06;;;;;;;;;;;7.40;99.90;;;;;;5095982;28;19924;-71
2021/12/28 08:01:35;;;;;;;;;;;7.50;99.90;;;;;;5092776;28;19924;-71
2021/12/28 08:04:02;;;;;;;;;;;7.40;99.90;;;;;;5098871;28;19982;-71
2021/12/28 08:06:29;;;;;;;;;;;7.40;99.90;;;;;;5108335;28;19924;-70
2021/12/28 08:08:56;;;;;;;;;;;7.40;99.90;;;;;;5109281;27;19924;-71
2021/12/28 08:11:23;;;;;;;;;;;7.40;99.90;;;;;;5116576;27;19927;-70
2021/12/28 08:13:50;;;;;;;;;;;7.40;99.90;;;;;;5109382;27;19986;-71
2021/12/28 08:16:17;;;;;;;;;;;7.40;99.90;;;;;;5099886;28;19924;-71
2021/12/28 08:18:43;;;;;;;;;;;7.40;99.90;;;;;;5103369;28;20342;-71
2021/12/28 08:21:10;;;;;;;;;;;7.40;99.90;;;;;;5105099;27;19929;-71
2021/12/28 08:23:39;;;;;;;;;;;7.40;99.90;;;;;;5105969;27;20347;-71
2021/12/28 08:26:06;;;;;;;;;;;7.40;99.90;;;;;;5092940;28;19930;-71
2021/12/28 08:28:32;;;;;;;;;;;7.40;99.90;;;;;;5098615;28;19934;-71
2021/12/28 08:30:59;;;;;;;;;;;7.40;99.90;;;;;;5095574;28;19938;-71
2021/12/28 08:33:28;;;;;;;;;;;7.40;99.90;;;;;;5089701;28;20401;-71
2021/12/28 08:35:56;;;;;;;;;;;7.40;99.90;;;;;;5098851;28;20110;-71
2021/12/28 08:38:22;;;;;;;;;;;7.50;99.90;;;;;;5101387;28;19932;-71
2021/12/28 08:40:51;;;;;;;;;;;7.50;99.90;;;;;;5099701;28;20392;-71
2021/12/28 08:43:18;;;;;;;;;;;7.50;99.90;;;;;;5096799;27;20023;-71
2021/12/28 08:45:48;;;;;;;;;;;7.50;99.90;;;;;;5092981;28;19924;-71
2021/12/28 08:48:15;;;;;;;;;;;7.50;99.90;;;;;;5090040;28;19928;-71
2021/12/28 08:50:42;;;;;;;;;;;7.50;99.90;;;;;;5098264;28;19924;-71
2021/12/28 08:53:10;;;;;;;;;;;7.50;99.90;;;;;;5100960;28;19942;-72
2021/12/28 08:55:38;;;;;;;;;;;7.50;99.90;;;;;;5107904;28;20246;-72
2021/12/28 08:58:07;;;;;;;;;;;7.50;99.90;;;;;;5095311;28;20411;-72
2021/12/28 09:00:34;;;;;;;;;;;7.50;99.90;;;;;;5098775;28;19924;-72
2021/12/28 09:03:02;;;;;;;;;;;7.50;99.90;;;;;;5105712;28;20010;-72
2021/12/28 09:05:29;;;;;;;;;;;7.50;99.90;;;;;;5105605;28;19924;-71
2021/12/28 09:07:56;;;;;;;;;;;7.50;99.90;;;;;;5089667;28;19967;-73
2021/12/28 09:10:26;;;;;;;;;;;7.50;99.90;;;;;;5090625;28;19946;-72
2021/12/28 09:12:53;;;;;;;;;;;7.50;99.90;;;;;;5104805;28;20018;-72
2021/12/28 09:15:23;;;;;;;;;;;7.50;99.90;;;;;;5091564;28;19924;-72
2021/12/28 09:17:50;;;;;;;;;;;7.50;99.90;;;;;;5097710;28;19924;-72
2021/12/28 09:20:20;;;;;;;;;;;7.50;99.90;;;;;;5107625;28;19928;-72
2021/12/28 09:23:06;;;;;;;;;;;7.50;99.90;;;;;;5117368;27;19968;-72
2021/12/28 09:25:32;;;;;;;;;;;7.60;99.90;;;;;;5104769;28;19934;-72
2021/12/28 09:27:59;;;;;;;;;;;7.60;99.90;;;;;;5098514;28;20598;-72
2021/12/28 09:30:26;;;;;;;;;;;7.60;99.90;;;;;;5091774;28;19927;-72
2021/12/28 09:32:53;;;;;;;;;;;7.60;99.90;;;;;;5092225;28;19928;-72
2021/12/28 09:35:20;;;;;;;;;;;7.60;99.90;;;;;;5096422;28;19951;-72
2021/12/28 09:37:47;;;;;;;;;;;7.60;99.90;;;;;;5096348;28;19930;-72
2021/12/28 09:40:14;;;;;;;;;;;7.70;99.90;;;;;;5102454;28;20036;-72
2021/12/28 09:42:44;;;;;;;;;;;7.70;99.90;;;;;;5093396;28;20534;-72
2021/12/28 09:45:11;;;;;;;;;;;7.70;99.90;;;;;;5097119;28;19930;-71
2021/12/28 09:47:41;;;;;;;;;;;7.70;99.90;;;;;;5107114;28;19928;-72
2021/12/28 09:50:11;;;;;;;;;;;7.70;99.90;;;;;;5106488;28;19927;-72
2021/12/28 09:52:41;;;;;;;;;;;7.80;99.90;;;;;;5099584;28;19985;-72
2021/12/28 09:55:09;;;;;;;;;;;7.80;99.90;;;;;;5095311;28;19930;-72
2021/12/28 09:57:36;;;;;;;;;;;7.80;99.90;;;;;;5105412;28;20328;-73
2021/12/28 10:00:04;;;;;;;;;;;7.80;99.90;;;;;;5112716;28;19986;-72
2021/12/28 10:02:31;;;;;;;;;;;7.80;99.90;;;;;;5105730;28;20008;-72
2021/12/28 10:05:00;;;;;;;;;;;7.90;99.90;;;;;;5096362;28;19970;-73
2021/12/28 10:07:29;;;;;;;;;;;7.90;99.90;;;;;;5107722;28;19923;-72
2021/12/28 10:09:56;;;;;;;;;;;8.00;99.90;;;;;;5096588;28;20411;-73
2021/12/28 10:12:27;;;;;;;;;;;8.00;99.90;;;;;;5089365;28;19934;-73
2021/12/28 10:15:00;;;;;;;;;;;8.10;99.90;;;;;;5097949;28;19923;-72
2021/12/28 10:17:31;;;;;;;;;;;8.20;99.90;;;;;;5094659;28;20007;-72
2021/12/28 10:20:01;;;;;;;;;;;8.20;99.90;;;;;;5091037;28;20390;-72
2021/12/28 10:22:30;;;;;;;;;;;8.10;99.90;;;;;;5094957;28;19970;-72
2021/12/28 10:25:02;;;;;;;;;;;8.10;99.90;;;;;;5098363;28;19928;-72
2021/12/28 10:27:30;;;;;;;;;;;8.20;99.90;;;;;;5103607;28;19923;-72
2021/12/28 10:30:02;;;;;;;;;;;8.20;99.90;;;;;;5097131;28;19924;-72
2021/12/28 10:32:29;;;;;;;;;;;8.20;99.90;;;;;;5089797;28;19930;-72
2021/12/28 10:35:03;;;;;;;;;;;8.20;99.90;;;;;;5104556;28;20019;-72
2021/12/28 10:37:32;;;;;;;;;;;8.40;99.90;;;;;;5090360;28;20387;-72
2021/12/28 10:40:00;;;;;;;;;;;8.50;99.90;;;;;;5100206;28;19924;-72
2021/12/28 10:42:45;;;;;;;;;;;8.60;99.90;;;;;;5108586;27;19924;-72
2021/12/28 10:45:17;;;;;;;;;;;8.70;99.90;;;;;;5109893;28;19923;-72
2021/12/28 10:47:44;;;;;;;;;;;8.90;99.90;;;;;;5105175;28;19985;-72
2021/12/28 10:50:33;;;;;;;;;;;9.10;99.90;;;;;;5100952;28;19931;-72
2021/12/28 10:53:05;;;;;;;;;;;9.20;99.90;;;;;;5089467;28;19930;-72
2021/12/28 10:55:32;;;;;;;;;;;9.40;99.90;;;;;;5101803;28;19924;-72
2021/12/28 10:57:59;;;;;;;;;;;9.50;99.90;;;;;;5094802;27;19932;-72
2021/12/28 11:00:28;;;;;;;;;;;9.40;99.90;;;;;;5099105;27;19923;-72
2021/12/28 11:03:14;;;;;;;;;;;9.40;99.90;;;;;;5110697;27;20002;-72
2021/12/28 11:05:43;;;;;;;;;;;9.50;99.90;;;;;;5101569;28;19977;-72
2021/12/28 11:08:10;;;;;;;;;;;9.70;99.90;;;;;;5099209;28;19924;-72
2021/12/28 11:10:51;;;;;;;;;;;9.80;99.90;;;;;;5109148;28;19934;-72
2021/12/28 11:13:18;;;;;;;;;;;9.90;99.90;;;;;;5102923;28;19924;-72
2021/12/28 11:15:46;;;;;;;;;;;9.90;99.90;;;;;;5105456;28;19923;-72
2021/12/28 11:18:15;;;;;;;;;;;9.90;99.90;;;;;;5096041;28;19944;-72
2021/12/28 11:20:43;;;;;;;;;;;9.80;99.90;;;;;;5102854;28;20019;-72
2021/12/28 11:23:11;;;;;;;;;;;9.70;99.90;;;;;;5101145;28;20015;-72
2021/12/28 11:25:37;;;;;;;;;;;9.60;99.90;;;;;;5108060;28;19924;-72
2021/12/28 11:28:16;;;;;;;;;;;9.60;99.90;;;;;;5101593;27;20255;-73
2021/12/28 11:31:01;;;;;;;;;;;9.70;99.90;;;;;;5101854;27;19930;-72
2021/12/28 11:33:44;;;;;;;;;;;9.70;99.90;;;;;;5093650;28;19963;-73
2021/12/28 11:36:11;;;;;;;;;;;9.90;99.90;;;;;;5107652;28;20286;-72
2021/12/28 11:38:38;;;;;;;;;;;9.90;99.90;;;;;;5104942;28;19928;-73
2021/12/28 11:41:06;;;;;;;;;;;9.90;99.90;;;;;;5120102;27;20370;-75
2021/12/28 11:43:36;;;;;;;;;;;9.90;99.90;;;;;;5095378;28;20859;-73
2021/12/28 11:46:07;;;;;;;;;;;9.90;99.90;;;;;;5109760;28;20015;-73
2021/12/28 11:48:35;;;;;;;;;;;10.00;99.90;;;;;;5108613;28;19923;-72
2021/12/28 11:51:02;;;;;;;;;;;10.00;99.90;;;;;;5107873;28;19928;-73
2021/12/28 11:53:33;;;;;;;;;;;9.90;99.90;;;;;;5100207;27;20409;-73
2021/12/28 11:56:00;;;;;;;;;;;10.00;99.90;;;;;;5106306;28;19975;-75
2021/12/28 11:58:46;;;;;;;;;;;10.00;99.90;;;;;;5099095;28;20009;-73
2021/12/28 12:01:34;;;;;;;;;;;10.00;99.90;;;;;;5098149;28;20014;-73
2021/12/28 12:04:01;;;;;;;;;;;10.00;99.90;;;;;;5102955;27;20327;-73
2021/12/28 12:06:47;;;;;;;;;;;9.90;99.90;;;;;;5104433;28;19944;-73
2021/12/28 12:09:14;;;;;;;;;;;9.90;99.90;;;;;;5092129;28;19959;-73
2021/12/28 12:11:59;;;;;;;;;;;9.70;99.90;;;;;;5094118;27;19951;-73
2021/12/28 12:14:47;;;;;;;;;;;9.70;99.90;;;;;;5095055;28;19924;-73
2021/12/28 12:17:26;;;;;;;;;;;9.60;99.90;;;;;;5100984;27;19943;-73
2021/12/28 12:19:54;;;;;;;;;;;9.50;99.90;;;;;;5115587;27;20018;-73
2021/12/28 12:22:40;;;;;;;;;;;9.50;99.90;;;;;;5093619;28;19924;-73
2021/12/28 12:25:11;;;;;;;;;;;9.50;99.90;;;;;;5111789;28;19923;-75
2021/12/28 12:27:49;;;;;;;;;;;9.60;99.90;;;;;;5096369;28;19928;-74
2021/12/28 12:30:22;;;;;;;;;;;9.70;99.90;;;;;;5092950;28;19924;-74
2021/12/28 12:32:55;;;;;;;;;;;9.80;99.90;;;;;;5107205;28;19986;-74
2021/12/28 12:35:42;;;;;;;;;;;9.80;99.90;;;;;;5097836;28;20408;-74
2021/12/28 12:38:11;;;;;;;;;;;9.80;99.90;;;;;;5106020;28;19970;-75
2021/12/28 12:40:56;;;;;;;;;;;9.80;99.90;;;;;;5097164;28;20536;-74
2021/12/28 12:43:24;;;;;;;;;;;9.80;99.90;;;;;;5095962;28;19927;-74
2021/12/28 12:45:51;;;;;;;;;;;9.80;99.90;;;;;;5110708;28;19923;-74
2021/12/28 12:48:36;;;;;;;;;;;9.80;99.90;;;;;;5102324;27;20018;-74
2021/12/28 12:51:24;;;;;;;;;;;9.70;99.90;;;;;;5097697;28;19935;-74
2021/12/28 12:53:56;;;;;;;;;;;9.70;99.90;;;;;;5110407;27;19930;-74
2021/12/28 12:56:27;;;;;;;;;;;9.70;99.90;;;;;;5120914;27;19999;-74
2021/12/28 12:58:56;;;;;;;;;;;9.60;99.90;;;;;;5092358;28;20542;-74
2021/12/28 13:01:30;;;;;;;;;;;9.60;99.90;;;;;;5106977;28;19924;-74
2021/12/28 13:03:59;;;;;;;;;;;9.60;99.90;;;;;;5096673;28;19960;-74
2021/12/28 13:06:41;;;;;;;;;;;9.60;99.90;;;;;;5108757;27;20005;-74
2021/12/28 13:09:10;;;;;;;;;;;9.60;99.90;;;;;;5092120;28;19924;-73
2021/12/28 13:11:37;;;;;;;;;;;9.50;99.90;;;;;;5103519;28;19935;-73
2021/12/28 13:14:04;;;;;;;;;;;9.50;99.90;;;;;;5099302;28;19954;-73
2021/12/28 13:16:31;;;;;;;;;;;9.50;99.90;;;;;;5105818;28;19924;-73
2021/12/28 13:19:14;;;;;;;;;;;9.50;99.90;;;;;;5089380;28;19924;-74
2021/12/28 13:21:58;;;;;;;;;;;9.40;99.90;;;;;;5091472;28;19939;-73
2021/12/28 13:24:28;;;;;;;;;;;9.40;99.90;;;;;;5092904;28;19930;-73
2021/12/28 13:26:58;;;;;;;;;;;9.40;99.90;;;;;;5109248;28;19934;-73
2021/12/28 13:29:31;;;;;;;;;;;9.40;99.90;;;;;;5100372;28;19924;-74
2021/12/28 13:32:16;;;;;;;;;;;9.40;99.90;;;;;;5105731;28;19955;-74
2021/12/28 13:35:02;;;;;;;;;;;9.40;99.90;;;;;;5096963;28;20228;-73
2021/12/28 13:37:37;;;;;;;;;;;9.40;99.90;;;;;;5092254;28;19934;-74
2021/12/28 13:40:09;;;;;;;;;;;9.40;99.90;;;;;;5097350;28;19934;-73
2021/12/28 13:42:40;;;;;;;;;;;9.40;99.90;;;;;;5095880;28;20007;-73
2021/12/28 13:45:08;;;;;;;;;;;9.30;99.90;;;;;;5095878;28;19923;-73
2021/12/28 13:47:38;;;;;;;;;;;9.30;99.90;;;;;;5092977;28;20005;-73
2021/12/28 13:50:14;;;;;;;;;;;9.30;99.90;;;;;;5102599;28;19924;-73
2021/12/28 13:52:52;;;;;;;;;;;9.30;99.90;;;;;;5090114;28;19927;-74
2021/12/28 13:55:30;;;;;;;;;;;9.30;99.90;;;;;;5099453;28;20375;-74
2021/12/28 13:57:59;;;;;;;;;;;9.20;99.90;;;;;;5090434;28;19927;-74
2021/12/28 14:00:29;;;;;;;;;;;9.20;99.90;;;;;;5106008;28;20414;-74
2021/12/28 14:03:06;;;;;;;;;;;9.20;99.90;;;;;;5091078;28;19919;-73
2021/12/28 14:05:34;;;;;;;;;;;9.30;99.90;;;;;;5091877;28;19920;-73
2021/12/28 14:08:02;;;;;;;;;;;9.30;99.90;;;;;;5099094;28;19920;-73
2021/12/28 14:10:30;;;;;;;;;;;9.30;99.90;;;;;;5090709;28;19926;-74
2021/12/28 14:13:16;;;;;;;;;;;9.30;99.90;;;;;;5107143;28;19920;-74
2021/12/28 14:15:48;;;;;;;;;;;9.30;99.90;;;;;;5110518;28;19927;-74
2021/12/28 14:18:21;;;;;;;;;;;9.30;99.90;;;;;;5103615;28;20353;-74
2021/12/28 14:20:48;;;;;;;;;;;9.30;99.90;;;;;;5091884;28;20016;-74
2021/12/28 14:23:25;;;;;;;;;;;9.30;99.90;;;;;;5100508;28;20011;-75
2021/12/28 14:26:09;;;;;;;;;;;9.30;99.90;;;;;;5105866;28;19920;-74
2021/12/28 14:28:59;;;;;;;;;;;9.40;99.90;;;;;;5098180;28;19920;-74
2021/12/28 14:31:35;;;;;;;;;;;9.30;99.90;;;;;;5101574;28;19919;-75
2021/12/28 14:34:02;;;;;;;;;;;9.30;99.90;;;;;;5099245;27;20010;-74
2021/12/28 14:36:31;;;;;;;;;;;9.30;99.90;;;;;;5110286;28;19920;-75
2021/12/28 14:39:20;;;;;;;;;;;9.40;99.90;;;;;;5095118;28;19927;-74
2021/12/28 14:42:02;;;;;;;;;;;9.60;99.90;;;;;;5096929;27;19920;-74
2021/12/28 14:44:30;;;;;;;;;;;9.80;99.90;;;;;;5099080;28;20046;-75